Aérodrome :
LOGIN :

S'inscrire | Disclaimer

   EN    FR    IT 

 










Légende :    VFR   VFR Marginal   IFR   IFR Intensif   IFR Très Intensif
Visi : 
Plafond : 
>= 8 km
>= 3000ft
5 à 8 km
1000 à 3000 ft
1500m à 5 km
500 à 1000 ft
800 à 1500m
200 à 500 ft
< 800m
< 200 ft
Symboles :   Orages  Brouillard  Fortes neiges  Fortes précipitations  Vent > 20 kt
SIGMETs :   Divers  Orages  Givrage  Turbulence  Onde Orograph.  Cendres Volcan.






- Altitude de l'aérodrome : 93 ft
- Code IATA : XRY


LEJR - Jerez

DERNIER METAR :
  • 151400Z 25010G20KT 200V300 CAVOK 31/17 Q1016

METARs EXPIRÉS :
  • 151330Z 24010KT 200V290 CAVOK 30/16 Q1016
  • 151300Z 29010KT 240V330 CAVOK 30/17 Q1016
  • 151230Z 27007KT 190V330 CAVOK 31/16 Q1016
  • 151200Z 29007KT 220V360 CAVOK 30/16 Q1016
  • 151130Z 26007KT 200V340 CAVOK 30/17 Q1016
  • 151100Z VRB05KT CAVOK 30/16 Q1016
  • 151030Z VRB03KT CAVOK 30/16 Q1016
  • 151000Z 25005KT 180V320 CAVOK 28/16 Q1016
  • 150930Z VRB03KT CAVOK 27/16 Q1016

TAF TAF LEJR
Valide du 15 à 09h jusqu'au 16 à 09h UTC


150800Z 1509/1609 27008KT CAVOK TX32/1514Z TN18/1605Z



MET'MAP, la Météo Aéronautique d'un coup d'oeil ! - Copyright ORBIFLY Décembre 2007 - Disclaimer

ORBIFLY MET'MAP TEAM :

Programmation & Développement : Alexandra Zaïnal
Sur une idée originale de : Baudouin d'Aumeries
Soutien technique & logistique : Manuel Goepfert
Assistance : Marc-Olivier Méhu




SOURCES & CREDITS :

   NOAA